createdAt,value
2018-09-01T00:00:16.578Z,98311.69
2018-09-01T00:02:44.834Z,98308.91
2018-09-01T00:05:13.021Z,98306.27
2018-09-01T00:07:41.422Z,98301.56
2018-09-01T00:10:09.625Z,98304.59
2018-09-01T00:12:37.806Z,98310.41
2018-09-01T00:15:06.001Z,98298.30
2018-09-01T00:17:34.283Z,98298.94
2018-09-01T00:20:03.321Z,98295.83
2018-09-01T00:22:31.797Z,98291.08
2018-09-01T00:25:00.465Z,98294.23
2018-09-01T00:27:29.015Z,98302.36
2018-09-01T00:29:57.181Z,98307.56
2018-09-01T00:32:25.411Z,98300.83
2018-09-01T00:34:53.595Z,98306.53
2018-09-01T00:37:27.283Z,98304.83
2018-09-01T00:39:55.412Z,98297.36
2018-09-01T00:42:23.691Z,98299.03
2018-09-01T00:44:51.873Z,98294.06
2018-09-01T00:47:20.050Z,98291.11
2018-09-01T00:49:48.338Z,98283.14
2018-09-01T00:52:16.616Z,98285.25
2018-09-01T00:54:45.780Z,98280.25
2018-09-01T00:57:13.960Z,98287.78
2018-09-01T00:59:42.170Z,98280.09
2018-09-01T01:02:10.344Z,98284.39
2018-09-01T01:04:38.910Z,98287.20
2018-09-01T01:07:07.204Z,98286.92
2018-09-01T01:09:35.380Z,98282.96
2018-09-01T01:12:03.618Z,98287.05
2018-09-01T01:14:32.529Z,98289.23
2018-09-01T01:17:00.890Z,98289.24
2018-09-01T01:19:29.081Z,98283.02
2018-09-01T01:21:57.259Z,98276.53
2018-09-01T01:24:25.458Z,98278.05
2018-09-01T01:26:55.888Z,98277.62
2018-09-01T01:29:25.208Z,98276.67
2018-09-01T01:31:53.773Z,98279.94
2018-09-01T01:34:22.263Z,98273.73
2018-09-01T01:36:50.493Z,98275.59
2018-09-01T01:39:18.803Z,98276.63
2018-09-01T01:41:47.029Z,98279.66
2018-09-01T01:44:15.659Z,98273.32
2018-09-01T01:46:43.909Z,98271.66
2018-09-01T01:49:12.085Z,98269.86
2018-09-01T01:51:40.617Z,98281.03
2018-09-01T01:54:08.852Z,98275.12
2018-09-01T01:56:37.029Z,98275.84
2018-09-01T01:59:06.139Z,98277.64
2018-09-01T02:01:34.572Z,98273.75
2018-09-01T02:04:03.000Z,98276.63
2018-09-01T02:06:31.246Z,98277.00
2018-09-01T02:08:59.734Z,98280.83
2018-09-01T02:11:27.994Z,98278.58
2018-09-01T02:13:56.278Z,98279.37
2018-09-01T02:16:24.542Z,98280.02
2018-09-01T02:18:52.822Z,98282.34
2018-09-01T02:21:21.021Z,98287.97
2018-09-01T02:23:49.211Z,98287.60
2018-09-01T02:26:17.442Z,98284.14
2018-09-01T02:28:45.637Z,98278.44
2018-09-01T02:31:13.810Z,98283.05
2018-09-01T02:33:42.005Z,98289.77
2018-09-01T02:36:10.385Z,98286.52
2018-09-01T02:38:38.572Z,98279.95
2018-09-01T02:41:06.791Z,98290.85
2018-09-01T02:43:35.033Z,98285.37
2018-09-01T02:46:03.676Z,98288.15
2018-09-01T02:48:31.939Z,98294.67
2018-09-01T02:51:00.409Z,98292.30
2018-09-01T02:53:28.587Z,98299.33
2018-09-01T02:55:56.771Z,98293.77
2018-09-01T02:58:25.032Z,98305.45
2018-09-01T03:00:58.473Z,98299.03
2018-09-01T03:03:26.662Z,98299.48
2018-09-01T03:05:55.086Z,98303.20
2018-09-01T03:08:23.269Z,98310.30
2018-09-01T03:10:51.464Z,98313.76
2018-09-01T03:13:19.746Z,98304.31
2018-09-01T03:15:47.938Z,98308.22
2018-09-01T03:18:16.182Z,98310.11
2018-09-01T03:20:44.384Z,98309.78
2018-09-01T03:23:12.546Z,98308.20
2018-09-01T03:25:40.797Z,98297.97
2018-09-01T03:28:09.286Z,98298.06
2018-09-01T03:30:37.537Z,98303.52
2018-09-01T03:33:05.938Z,98311.19
2018-09-01T03:35:34.529Z,98309.59
2018-09-01T03:38:02.721Z,98312.20
2018-09-01T03:40:32.311Z,98308.94
2018-09-01T03:43:00.485Z,98312.45
2018-09-01T03:45:28.662Z,98311.00
2018-09-01T03:47:56.861Z,98310.42
2018-09-01T03:50:25.077Z,98314.67
2018-09-01T03:52:53.269Z,98311.16
2018-09-01T03:55:21.471Z,98311.19
2018-09-01T03:57:49.781Z,98313.52
2018-09-01T04:00:18.003Z,98310.62
2018-09-01T04:02:46.180Z,98315.25
2018-09-01T04:05:14.441Z,98309.03
2018-09-01T04:07:42.712Z,98311.98
2018-09-01T04:10:11.216Z,98315.16
2018-09-01T04:12:39.477Z,98305.45
2018-09-01T04:15:07.680Z,98302.91
2018-09-01T04:17:35.860Z,98301.69
2018-09-01T04:20:04.043Z,98303.06
2018-09-01T04:22:32.214Z,98303.49
2018-09-01T04:25:00.472Z,98303.00
2018-09-01T04:27:28.639Z,98303.99
2018-09-01T04:29:56.796Z,98303.06
2018-09-01T04:32:24.980Z,98307.74
2018-09-01T04:34:53.170Z,98306.75
2018-09-01T04:37:21.340Z,98310.64
2018-09-01T04:39:49.603Z,98317.80
2018-09-01T04:42:17.776Z,98318.03
2018-09-01T04:44:45.953Z,98313.30
2018-09-01T04:47:14.162Z,98311.36
2018-09-01T04:49:42.396Z,98312.64
2018-09-01T04:52:10.682Z,98307.74
2018-09-01T04:54:38.968Z,98309.47
2018-09-01T04:57:07.222Z,98310.39
2018-09-01T04:59:35.403Z,98314.02
2018-09-01T05:02:03.608Z,98312.00
2018-09-01T05:04:31.853Z,98299.89
2018-09-01T05:07:00.429Z,98311.98
2018-09-01T05:09:29.240Z,98314.09
2018-09-01T05:11:57.743Z,98311.85
2018-09-01T05:14:26.196Z,98309.61
2018-09-01T05:16:54.705Z,98314.75
2018-09-01T05:19:22.965Z,98324.44
2018-09-01T05:21:51.140Z,98314.19
2018-09-01T05:24:19.423Z,98310.16
2018-09-01T05:26:47.589Z,98311.94
2018-09-01T05:29:15.858Z,98308.84
2018-09-01T05:31:44.042Z,98315.59
2018-09-01T05:34:12.312Z,98323.45
2018-09-01T05:36:40.559Z,98334.53
2018-09-01T05:39:09.342Z,98329.94
2018-09-01T05:41:37.794Z,98327.95
2018-09-01T05:44:06.020Z,98337.48
2018-09-01T05:46:34.572Z,98325.97
2018-09-01T05:49:02.746Z,98329.20
2018-09-01T05:51:30.946Z,98322.21
2018-09-01T05:53:59.130Z,98326.61
2018-09-01T05:56:27.490Z,98325.27
2018-09-01T05:58:55.690Z,98321.98
2018-09-01T06:01:23.887Z,98336.47
2018-09-01T06:03:52.097Z,98340.95
2018-09-01T06:06:20.340Z,98336.63
2018-09-01T06:08:48.602Z,98337.38
2018-09-01T06:11:16.801Z,98334.05
2018-09-01T06:13:44.973Z,98340.05
2018-09-01T06:16:13.161Z,98348.05
2018-09-01T06:18:41.373Z,98337.23
2018-09-01T06:21:09.601Z,98332.09
2018-09-01T06:23:37.857Z,98337.83
2018-09-01T06:26:06.035Z,98338.00
2018-09-01T06:29:08.646Z,98335.84
2018-09-01T06:31:37.399Z,98344.05
2018-09-01T06:34:05.769Z,98335.20
2018-09-01T06:36:34.284Z,98340.50
2018-09-01T06:39:03.531Z,98334.84
2018-09-01T06:41:31.686Z,98330.81
2018-09-01T06:43:59.884Z,98331.67
2018-09-01T06:46:28.149Z,98337.48
2018-09-01T06:48:56.342Z,98337.37
2018-09-01T06:51:25.120Z,98348.48
2018-09-01T06:53:53.278Z,98339.89
2018-09-01T06:56:21.480Z,98355.04
2018-09-01T06:58:50.388Z,98348.13
2018-09-01T07:01:18.589Z,98341.09
2018-09-01T07:03:46.852Z,98342.36
2018-09-01T07:06:15.036Z,98345.88
2018-09-01T07:08:43.299Z,98345.48
2018-09-01T07:11:11.540Z,98349.45
2018-09-01T07:13:39.840Z,98343.92
2018-09-01T07:16:08.015Z,98350.21
2018-09-01T07:18:36.185Z,98348.38
2018-09-01T07:21:04.713Z,98350.76
2018-09-01T07:23:33.310Z,98348.86
2018-09-01T07:26:01.765Z,98348.98
2018-09-01T07:28:29.953Z,98353.30
2018-09-01T07:30:58.596Z,98357.68
2018-09-01T07:33:26.363Z,98367.66
2018-09-01T07:35:54.625Z,98368.48
2018-09-01T07:38:22.877Z,98373.91
2018-09-01T07:40:51.057Z,98373.27
2018-09-01T07:43:19.549Z,98377.59
2018-09-01T07:45:47.722Z,98379.80
2018-09-01T07:48:15.905Z,98388.64
2018-09-01T07:50:44.174Z,98381.95
2018-09-01T07:53:12.338Z,98381.30
2018-09-01T07:55:40.790Z,98391.60
2018-09-01T07:58:09.407Z,98387.36
2018-09-01T08:00:37.577Z,98401.85
2018-09-01T08:03:06.206Z,98403.08
2018-09-01T08:05:34.411Z,98407.05
2018-09-01T08:08:03.138Z,98411.52
2018-09-01T08:10:31.408Z,98422.34
2018-09-01T08:12:59.592Z,98426.92
2018-09-01T08:15:27.822Z,98426.10
2018-09-01T08:17:55.998Z,98430.86
2018-09-01T08:20:24.198Z,98435.00
2018-09-01T08:22:52.384Z,98431.29
2018-09-01T08:25:21.034Z,98434.36
2018-09-01T08:27:49.210Z,98438.83
2018-09-01T08:30:17.393Z,98435.95
2018-09-01T08:32:45.577Z,98439.64
2018-09-01T08:35:14.077Z,98433.93
2018-09-01T08:37:42.288Z,98438.87
2018-09-01T08:40:10.770Z,98433.33
2018-09-01T08:42:39.001Z,98432.91
2018-09-01T08:45:07.269Z,98435.70
2018-09-01T08:47:35.452Z,98426.97
2018-09-01T08:50:03.689Z,98428.73
2018-09-01T08:52:31.896Z,98431.05
2018-09-01T08:55:00.121Z,98422.64
2018-09-01T08:57:28.362Z,98431.55
2018-09-01T08:59:56.673Z,98425.00
2018-09-01T09:02:24.896Z,98423.42
2018-09-01T09:04:53.184Z,98425.06
2018-09-01T09:07:21.475Z,98425.66
2018-09-01T09:09:49.646Z,98429.84
2018-09-01T09:12:17.918Z,98432.53
2018-09-01T09:14:46.182Z,98434.30
2018-09-01T09:17:14.366Z,98445.95
2018-09-01T09:19:42.559Z,98439.79
2018-09-01T09:22:10.809Z,98439.61
2018-09-01T09:24:39.010Z,98445.40
2018-09-01T09:27:07.441Z,98439.30
2018-09-01T09:29:35.955Z,98442.20
2018-09-01T09:32:04.231Z,98439.42
2018-09-01T09:34:32.463Z,98436.70
2018-09-01T09:37:00.601Z,98437.52
2018-09-01T09:39:28.837Z,98434.31
2018-09-01T09:41:57.609Z,98432.63
2018-09-01T09:44:25.720Z,98440.14
2018-09-01T09:46:53.976Z,98429.98
2018-09-01T09:49:22.294Z,98424.88
2018-09-01T09:51:50.751Z,98424.81
2018-09-01T09:54:18.971Z,98438.39
2018-09-01T09:56:47.464Z,98441.00
2018-09-01T09:59:15.738Z,98429.19
2018-09-01T10:01:43.946Z,98433.43
2018-09-01T10:04:12.950Z,98440.66
2018-09-01T10:06:41.475Z,98437.83
2018-09-01T10:09:13.234Z,98437.87
2018-09-01T10:11:42.214Z,98445.80
2018-09-01T10:14:10.804Z,98440.19
2018-09-01T10:16:39.293Z,98441.36
2018-09-01T10:19:07.474Z,98437.05
2018-09-01T10:21:35.892Z,98452.30
2018-09-01T10:24:04.112Z,98452.79
2018-09-01T10:26:32.282Z,98452.43
2018-09-01T10:29:00.614Z,98448.63
2018-09-01T10:31:29.418Z,98444.91
2018-09-01T10:33:57.676Z,98451.71
2018-09-01T10:36:26.167Z,98446.05
2018-09-01T10:38:54.365Z,98435.01
2018-09-01T10:41:22.654Z,98438.22
2018-09-01T10:43:51.880Z,98430.48
2018-09-01T10:46:20.121Z,98447.83
2018-09-01T10:48:48.336Z,98452.95
2018-09-01T10:51:16.896Z,98451.38
2018-09-01T10:53:45.339Z,98450.30
2018-09-01T10:56:13.604Z,98450.91
2018-09-01T10:58:41.808Z,98452.34
2018-09-01T11:01:10.071Z,98459.83
2018-09-01T11:03:38.622Z,98464.58
2018-09-01T11:06:06.896Z,98471.61
2018-09-01T11:08:35.222Z,98470.61
2018-09-01T11:11:03.486Z,98469.55
2018-09-01T11:13:31.740Z,98474.54
2018-09-01T11:16:00.032Z,98482.53
2018-09-01T11:18:28.297Z,98478.72
2018-09-01T11:20:56.555Z,98484.58
2018-09-01T11:23:24.661Z,98482.02
2018-09-01T11:25:52.913Z,98484.18
2018-09-01T11:28:21.114Z,98475.83
2018-09-01T11:30:49.628Z,98482.08
2018-09-01T11:33:17.841Z,98478.95
2018-09-01T11:35:46.275Z,98477.99
2018-09-01T11:38:14.481Z,98474.55
2018-09-01T11:40:42.683Z,98478.60
2018-09-01T11:43:11.046Z,98473.55
2018-09-01T11:45:39.147Z,98473.64
2018-09-01T11:48:08.214Z,98479.68
2018-09-01T11:50:36.481Z,98473.75
2018-09-01T11:53:05.021Z,98477.98
2018-09-01T11:55:33.165Z,98480.22
2018-09-01T11:58:01.454Z,98478.08
2018-09-01T12:00:29.677Z,98479.45
2018-09-01T12:02:57.892Z,98479.39
2018-09-01T12:05:26.365Z,98477.88
2018-09-01T12:07:54.910Z,98475.58
2018-09-01T12:10:23.135Z,98478.09
2018-09-01T12:12:51.408Z,98481.05
2018-09-01T12:15:19.656Z,98484.01
2018-09-01T12:17:47.865Z,98477.94
2018-09-01T12:20:16.024Z,98481.70
2018-09-01T12:22:44.242Z,98470.98
2018-09-01T12:25:12.474Z,98475.69
2018-09-01T12:27:40.662Z,98473.06
2018-09-01T12:30:08.855Z,98482.68
2018-09-01T12:32:37.024Z,98479.05
2018-09-01T12:35:05.302Z,98466.72
2018-09-01T12:37:33.490Z,98469.19
2018-09-01T12:40:01.740Z,98468.70
2018-09-01T12:42:29.974Z,98471.35
2018-09-01T12:44:58.153Z,98468.90
2018-09-01T12:47:26.571Z,98467.17
2018-09-01T12:49:54.754Z,98468.23
2018-09-01T12:52:23.019Z,98470.05
2018-09-01T12:54:51.319Z,98466.61
2018-09-01T12:57:19.803Z,98475.19
2018-09-01T12:59:47.993Z,98471.91
2018-09-01T13:02:23.736Z,98479.15
2018-09-01T13:04:51.909Z,98470.61
2018-09-01T13:07:20.201Z,98474.89
2018-09-01T13:09:48.681Z,98476.45
2018-09-01T13:12:16.868Z,98471.24
2018-09-01T13:14:45.053Z,98473.62
2018-09-01T13:17:13.502Z,98472.75
2018-09-01T13:19:42.673Z,98471.83
2018-09-01T13:22:10.792Z,98470.45
2018-09-01T13:24:39.048Z,98469.42
2018-09-01T13:27:07.296Z,98468.66
2018-09-01T13:29:35.498Z,98474.59
2018-09-01T13:32:03.672Z,98468.77
2018-09-01T13:34:31.924Z,98474.50
2018-09-01T13:37:00.536Z,98481.83
2018-09-01T13:39:29.016Z,98472.52
2018-09-01T13:41:57.197Z,98483.89
2018-09-01T13:44:26.046Z,98478.28
2018-09-01T13:46:54.302Z,98489.22
2018-09-01T13:49:22.509Z,98478.51
2018-09-01T13:51:50.689Z,98479.73
2018-09-01T13:54:19.093Z,98487.53
2018-09-01T13:56:47.547Z,98484.73
2018-09-01T13:59:15.947Z,98489.01
2018-09-01T14:01:44.138Z,98490.84
2018-09-01T14:04:12.357Z,98495.27
2018-09-01T14:06:40.608Z,98494.84
2018-09-01T14:09:09.708Z,98494.30
2018-09-01T14:11:38.458Z,98493.00
2018-09-01T14:14:07.143Z,98497.41
2018-09-01T14:16:42.029Z,98500.73
2018-09-01T14:19:10.288Z,98495.64
2018-09-01T14:21:38.469Z,98490.75
2018-09-01T14:24:06.468Z,98494.66
2018-09-01T14:26:34.645Z,98496.70
2018-09-01T14:29:02.820Z,98497.38
2018-09-01T14:31:31.002Z,98494.23
2018-09-01T14:33:59.257Z,98498.78
2018-09-01T14:36:27.543Z,98493.59
2018-09-01T14:38:55.804Z,98494.81
2018-09-01T14:41:23.982Z,98497.77
2018-09-01T14:43:52.176Z,98492.48
2018-09-01T14:46:20.352Z,98493.50
2018-09-01T14:48:48.540Z,98497.45
2018-09-01T14:51:16.768Z,98501.70
2018-09-01T14:53:44.945Z,98502.15
2018-09-01T14:56:13.207Z,98504.40
2018-09-01T14:58:41.476Z,98510.73
2018-09-01T15:01:09.665Z,98504.66
2018-09-01T15:03:37.933Z,98512.13
2018-09-01T15:06:06.126Z,98506.95
2018-09-01T15:08:34.317Z,98503.08
2018-09-01T15:11:02.565Z,98506.77
2018-09-01T15:13:30.745Z,98511.90
2018-09-01T15:15:59.033Z,98499.63
2018-09-01T15:18:27.225Z,98504.55
2018-09-01T15:20:55.460Z,98505.19
2018-09-01T15:23:23.639Z,98502.80
2018-09-01T15:25:51.801Z,98505.41
2018-09-01T15:28:19.980Z,98510.17
2018-09-01T15:30:48.276Z,98509.17
2018-09-01T15:33:16.464Z,98513.27
2018-09-01T15:35:44.780Z,98513.20
2018-09-01T15:38:13.425Z,98515.73
2018-09-01T15:40:42.161Z,98519.30
2018-09-01T15:43:10.356Z,98515.23
2018-09-01T15:45:38.544Z,98511.90
2018-09-01T15:48:06.915Z,98511.31
2018-09-01T15:50:34.992Z,98519.06
2018-09-01T15:53:03.195Z,98514.22
2018-09-01T15:55:31.406Z,98513.05
2018-09-01T15:57:59.605Z,98508.08
2018-09-01T16:00:28.093Z,98514.44
2018-09-01T16:02:56.270Z,98514.73
2018-09-01T16:05:24.537Z,98514.45
2018-09-01T16:07:52.766Z,98511.12
2018-09-01T16:10:20.960Z,98511.41
2018-09-01T16:12:49.174Z,98512.65
2018-09-01T16:15:17.426Z,98513.64
2018-09-01T16:17:45.553Z,98509.38
2018-09-01T16:20:14.065Z,98510.46
2018-09-01T16:22:42.295Z,98513.07
2018-09-01T16:25:10.557Z,98508.61
2018-09-01T16:27:39.052Z,98507.33
2018-09-01T16:30:07.359Z,98504.26
2018-09-01T16:32:35.561Z,98499.36
2018-09-01T16:35:03.748Z,98503.69
2018-09-01T16:37:32.017Z,98504.99
2018-09-01T16:40:00.216Z,98495.31
2018-09-01T16:42:28.682Z,98495.99
2018-09-01T16:44:57.532Z,98498.77
2018-09-01T16:47:25.704Z,98495.45
2018-09-01T16:49:53.874Z,98493.72
2018-09-01T16:52:22.429Z,98492.78
2018-09-01T16:54:50.680Z,98496.11
2018-09-01T16:57:18.862Z,98491.05
2018-09-01T16:59:47.069Z,98499.50
2018-09-01T17:02:15.234Z,98492.85
2018-09-01T17:04:43.494Z,98492.78
2018-09-01T17:07:11.768Z,98493.53
2018-09-01T17:09:40.093Z,98492.99
2018-09-01T17:12:08.314Z,98489.67
2018-09-01T17:14:42.945Z,98499.02
2018-09-01T17:17:11.153Z,98498.50
2018-09-01T17:19:39.394Z,98500.23
2018-09-01T17:22:07.827Z,98497.50
2018-09-01T17:24:36.099Z,98503.64
2018-09-01T17:27:04.293Z,98505.73
2018-09-01T17:29:32.495Z,98500.03
2018-09-01T17:32:00.787Z,98501.17
2018-09-01T17:34:28.980Z,98503.34
2018-09-01T17:36:57.185Z,98499.06
2018-09-01T17:39:25.381Z,98505.20
2018-09-01T17:41:53.581Z,98500.95
2018-09-01T17:44:21.597Z,98504.56
2018-09-01T17:46:49.829Z,98503.99
2018-09-01T17:49:18.061Z,98507.69
2018-09-01T17:51:46.221Z,98509.99
2018-09-01T17:54:14.500Z,98508.98
2018-09-01T17:56:42.699Z,98507.16
2018-09-01T17:59:13.208Z,98505.63
2018-09-01T18:01:41.400Z,98510.75
2018-09-01T18:04:09.734Z,98504.83
2018-09-01T18:06:38.104Z,98506.34
2018-09-01T18:09:06.935Z,98505.05
2018-09-01T18:11:35.168Z,98510.26
2018-09-01T18:14:03.471Z,98516.81
2018-09-01T18:16:31.705Z,98513.19
2018-09-01T18:18:59.847Z,98515.36
2018-09-01T18:21:28.376Z,98518.09
2018-09-01T18:23:56.565Z,98517.11
2018-09-01T18:26:24.769Z,98515.60
2018-09-01T18:28:53.317Z,98517.38
2018-09-01T18:31:21.573Z,98519.25
2018-09-01T18:33:49.815Z,98523.80
2018-09-01T18:36:18.043Z,98523.14
2018-09-01T18:38:46.261Z,98526.89
2018-09-01T18:41:14.463Z,98526.42
2018-09-01T18:43:42.702Z,98536.02
2018-09-01T18:46:10.916Z,98536.23
2018-09-01T18:48:39.417Z,98538.80
2018-09-01T18:51:07.645Z,98533.12
2018-09-01T18:53:35.996Z,98539.84
2018-09-01T18:56:04.275Z,98540.50
2018-09-01T18:58:32.780Z,98541.87
2018-09-01T19:01:01.042Z,98540.05
2018-09-01T19:03:29.472Z,98548.50
2018-09-01T19:05:57.754Z,98554.42
2018-09-01T19:08:25.995Z,98562.59
2018-09-01T19:10:54.476Z,98557.72
2018-09-01T19:13:22.904Z,98558.42
2018-09-01T19:15:51.174Z,98552.30
2018-09-01T19:18:19.373Z,98556.70
2018-09-01T19:20:47.585Z,98554.89
2018-09-01T19:23:15.795Z,98553.34
2018-09-01T19:25:44.131Z,98554.69
2018-09-01T19:28:12.403Z,98554.72
2018-09-01T19:30:40.611Z,98560.45
2018-09-01T19:33:08.822Z,98557.86
2018-09-01T19:35:37.044Z,98565.88
2018-09-01T19:38:05.267Z,98566.52
2018-09-01T19:40:33.513Z,98571.69
2018-09-01T19:43:01.819Z,98565.51
2018-09-01T19:45:30.225Z,98570.81
2018-09-01T19:47:58.271Z,98570.81
2018-09-01T19:50:26.503Z,98573.64
2018-09-01T19:52:54.694Z,98575.45
2018-09-01T19:55:23.082Z,98574.34
2018-09-01T19:57:51.368Z,98571.13
2018-09-01T20:00:19.558Z,98570.16
2018-09-01T20:02:48.058Z,98569.89
2018-09-01T20:05:16.284Z,98567.46
2018-09-01T20:07:44.568Z,98566.17
2018-09-01T20:10:12.764Z,98558.35
2018-09-01T20:12:41.008Z,98556.54
2018-09-01T20:15:09.230Z,98556.09
2018-09-01T20:17:37.408Z,98555.08
2018-09-01T20:20:06.774Z,98551.50
2018-09-01T20:22:35.028Z,98552.73
2018-09-01T20:25:03.303Z,98550.80
2018-09-01T20:27:31.648Z,98556.27
2018-09-01T20:30:00.012Z,98557.73
2018-09-01T20:32:28.234Z,98556.90
2018-09-01T20:35:01.755Z,98553.71
2018-09-01T20:37:29.954Z,98560.17
2018-09-01T20:39:58.450Z,98558.30
2018-09-01T20:42:26.637Z,98567.67
2018-09-01T20:44:54.850Z,98573.86
2018-09-01T20:47:23.017Z,98569.75
2018-09-01T20:49:51.209Z,98565.19
2018-09-01T20:52:23.255Z,98566.02
2018-09-01T20:54:51.805Z,98557.15
2018-09-01T20:57:20.137Z,98562.45
2018-09-01T20:59:48.693Z,98565.52
2018-09-01T21:02:17.009Z,98557.15
2018-09-01T21:04:45.352Z,98556.50
2018-09-01T21:07:13.551Z,98564.67
2018-09-01T21:09:41.781Z,98555.39
2018-09-01T21:12:10.017Z,98554.69
2018-09-01T21:14:38.258Z,98559.47
2018-09-01T21:17:06.643Z,98553.98
2018-09-01T21:19:35.148Z,98548.06
2018-09-01T21:22:03.801Z,98545.94
2018-09-01T21:24:32.348Z,98539.45
2018-09-01T21:27:02.160Z,98537.41
2018-09-01T21:29:31.348Z,98535.43
2018-09-01T21:32:00.571Z,98536.09
2018-09-01T21:34:29.843Z,98528.70
2018-09-01T21:36:58.953Z,98523.77
2018-09-01T21:39:28.221Z,98519.78
2018-09-01T21:41:57.375Z,98515.11
2018-09-01T21:44:27.290Z,98516.83
2018-09-01T21:46:56.627Z,98520.40
2018-09-01T21:49:25.077Z,98519.73
2018-09-01T21:51:54.275Z,98525.44
2018-09-01T21:54:22.988Z,98523.67
2018-09-01T21:56:52.170Z,98522.39
2018-09-01T21:59:21.487Z,98522.59
2018-09-01T22:01:55.701Z,98525.26
2018-09-01T22:04:23.993Z,98529.11
2018-09-01T22:06:52.236Z,98524.24
2018-09-01T22:09:20.436Z,98525.84
2018-09-01T22:11:48.667Z,98528.70
2018-09-01T22:14:16.850Z,98526.48
2018-09-01T22:16:45.039Z,98531.31
2018-09-01T22:19:13.229Z,98526.64
2018-09-01T22:21:41.476Z,98524.91
2018-09-01T22:24:09.760Z,98525.61
2018-09-01T22:26:38.048Z,98525.84
2018-09-01T22:29:06.238Z,98523.67
2018-09-01T22:31:34.685Z,98529.60
2018-09-01T22:34:02.910Z,98528.75
2018-09-01T22:36:31.342Z,98521.99
2018-09-01T22:38:59.555Z,98525.75
2018-09-01T22:41:28.002Z,98519.42
2018-09-01T22:43:56.270Z,98517.13
2018-09-01T22:46:24.565Z,98527.78
2018-09-01T22:48:52.757Z,98514.66
2018-09-01T22:51:20.946Z,98521.29
2018-09-01T22:53:49.182Z,98514.48
2018-09-01T22:56:17.525Z,98514.91
2018-09-01T22:58:45.845Z,98514.11
2018-09-01T23:01:14.053Z,98511.65
2018-09-01T23:03:42.303Z,98513.33
2018-09-01T23:06:10.469Z,98514.95
2018-09-01T23:08:38.729Z,98513.11
2018-09-01T23:11:07.241Z,98514.53
2018-09-01T23:13:35.506Z,98512.22
2018-09-01T23:16:03.689Z,98512.48
2018-09-01T23:18:31.949Z,98516.47
2018-09-01T23:21:00.426Z,98510.77
2018-09-01T23:23:28.601Z,98514.95
2018-09-01T23:25:57.012Z,98519.46
2018-09-01T23:28:25.256Z,98517.73
2018-09-01T23:30:53.600Z,98514.17
2018-09-01T23:33:21.837Z,98509.78
2018-09-01T23:35:50.196Z,98516.89
2018-09-01T23:38:18.443Z,98512.26
2018-09-01T23:40:46.633Z,98514.78
2018-09-01T23:43:14.812Z,98513.64
2018-09-01T23:45:43.230Z,98505.86
2018-09-01T23:48:11.370Z,98511.20
2018-09-01T23:50:39.575Z,98506.62
2018-09-01T23:53:07.791Z,98507.05
2018-09-01T23:55:36.331Z,98504.39
2018-09-01T23:58:04.533Z,98501.91
